Time;durP1;ratioP1;P1;durP2;ratioP2;P2;SDS_P1;SDS_P2;PMS_P1;PMS_P2;Temp;Humidity;BMP_temperature;BMP_pressure;BME280_temperature;BME280_humidity;BME280_pressure;Samples;Min_cycle;Max_cycle;Signal;HPM_P1;HPM_P2
2023/06/06 00:01:09;;;;;;;7.00;6.30;;;17.90;99.90;;;;;;4995071;28;20191;-80
2023/06/06 00:03:35;;;;;;;13.10;7.27;;;17.90;99.90;;;;;;5002006;28;20183;-81
2023/06/06 00:06:00;;;;;;;9.23;7.33;;;17.80;99.90;;;;;;5002330;28;20450;-81
2023/06/06 00:08:28;;;;;;;8.77;7.00;;;17.80;99.90;;;;;;4997119;28;20217;-79
2023/06/06 00:10:54;;;;;;;12.13;7.27;;;17.80;99.90;;;;;;4992945;28;20266;-81
2023/06/06 00:13:20;;;;;;;11.60;7.27;;;17.80;99.90;;;;;;5001940;28;20435;-81
2023/06/06 00:15:46;;;;;;;12.80;7.40;;;17.80;99.90;;;;;;4996622;28;20474;-80
2023/06/06 00:18:11;;;;;;;10.30;7.33;;;17.80;99.90;;;;;;5002023;28;20550;-82
2023/06/06 00:20:38;;;;;;;11.67;7.70;;;17.70;99.90;;;;;;5001048;28;20183;-79
2023/06/06 00:23:04;;;;;;;11.13;7.57;;;17.70;99.90;;;;;;4999348;28;20198;-81
2023/06/06 00:25:30;;;;;;;13.50;7.53;;;17.70;99.90;;;;;;5002704;28;20470;-81
2023/06/06 00:27:56;;;;;;;8.23;7.17;;;17.60;99.90;;;;;;4999080;28;20833;-81
2023/06/06 00:30:21;;;;;;;10.03;7.90;;;17.60;99.90;;;;;;4996823;28;20435;-80
2023/06/06 00:32:47;;;;;;;11.40;7.13;;;17.60;99.90;;;;;;5011171;28;20187;-79
2023/06/06 00:35:12;;;;;;;9.93;8.17;;;17.60;99.90;;;;;;5000784;28;20214;-81
2023/06/06 00:37:38;;;;;;;8.50;7.07;;;17.50;99.90;;;;;;5001235;28;20226;-79
2023/06/06 00:40:06;;;;;;;10.93;7.17;;;17.50;99.90;;;;;;5002299;28;20214;-80
2023/06/06 00:42:31;;;;;;;13.67;7.97;;;17.40;99.90;;;;;;5001829;28;20464;-80
2023/06/06 00:44:57;;;;;;;9.23;7.03;;;17.40;99.90;;;;;;5001516;28;20532;-81
2023/06/06 00:47:23;;;;;;;9.37;7.60;;;17.40;99.90;;;;;;5001427;28;20215;-81
2023/06/06 00:49:49;;;;;;;11.00;7.57;;;17.30;99.90;;;;;;5002027;28;20190;-80
2023/06/06 00:52:16;;;;;;;10.43;7.93;;;17.30;99.90;;;;;;4997117;28;20439;-80
2023/06/06 00:54:42;;;;;;;13.20;8.10;;;17.20;99.90;;;;;;5004340;28;20480;-80
2023/06/06 00:57:09;;;;;;;14.87;8.20;;;17.20;99.90;;;;;;5003458;28;20455;-81
2023/06/06 00:59:37;;;;;;;12.00;9.63;;;17.10;99.90;;;;;;5006251;28;20450;-80
2023/06/06 01:02:04;;;;;;;15.40;9.47;;;17.10;99.90;;;;;;5000480;28;20444;-81
2023/06/06 01:04:29;;;;;;;11.13;8.57;;;17.00;99.90;;;;;;5006410;28;20540;-80
2023/06/06 01:06:57;;;;;;;14.63;8.50;;;17.00;99.90;;;;;;5002500;28;20504;-80
2023/06/06 01:09:22;;;;;;;10.20;7.67;;;17.00;1.00;;;;;;5005484;28;20210;-80
2023/06/06 01:12:20;;;;;;;15.33;8.83;;;16.90;1.00;;;;;;5004684;28;20434;-79
2023/06/06 01:15:08;;;;;;;10.70;8.20;;;16.90;1.00;;;;;;5011576;28;20287;-80
2023/06/06 01:17:36;;;;;;;10.80;8.07;;;16.80;1.00;;;;;;4993605;28;20873;-81
2023/06/06 01:20:06;;;;;;;11.37;7.30;;;16.80;1.00;;;;;;5004610;28;20431;-79
2023/06/06 01:22:33;;;;;;;12.27;8.07;;;16.80;1.00;;;;;;5005996;28;20452;-80
2023/06/06 01:24:58;;;;;;;13.30;7.77;;;16.70;1.00;;;;;;5002523;28;20456;-79
2023/06/06 01:27:24;;;;;;;10.53;8.57;;;16.70;1.00;;;;;;5003339;28;20461;-79
2023/06/06 01:29:51;;;;;;;13.40;7.80;;;16.60;1.00;;;;;;4998314;28;20229;-80
2023/06/06 01:32:25;;;;;;;10.70;8.10;;;16.60;1.00;;;;;;5001909;28;20198;-80
2023/06/06 01:35:04;;;;;;;11.30;9.17;;;16.60;1.00;;;;;;5005668;28;20487;-78
2023/06/06 01:37:40;;;;;;;12.10;8.17;;;16.60;1.00;;;;;;5005446;28;20868;-79
2023/06/06 01:40:09;;;;;;;10.40;8.27;;;16.50;1.00;;;;;;5005708;28;20440;-81
2023/06/06 01:42:43;;;;;;;14.13;9.07;;;16.50;1.00;;;;;;4997188;28;20468;-78
2023/06/06 01:45:11;;;;;;;11.33;9.00;;;16.40;1.00;;;;;;5005779;28;21046;-81
2023/06/06 01:47:38;;;;;;;16.83;8.77;;;16.40;1.00;;;;;;4999000;28;20446;-79
2023/06/06 01:50:07;;;;;;;13.13;8.80;;;16.40;1.00;;;;;;4998325;28;20520;-80
2023/06/06 01:52:39;;;;;;;11.57;8.50;;;16.30;1.00;;;;;;5005243;28;20455;-81
2023/06/06 01:55:08;;;;;;;8.87;7.20;;;16.30;1.00;;;;;;5003367;28;20845;-80
2023/06/06 01:57:34;;;;;;;9.90;8.20;;;16.30;1.00;;;;;;4998114;28;20462;-81
2023/06/06 02:00:00;;;;;;;12.20;8.10;;;16.20;1.00;;;;;;5002022;28;20441;-80
2023/06/06 02:02:27;;;;;;;14.17;9.40;;;16.20;1.00;;;;;;4992937;28;20461;-80
2023/06/06 02:04:53;;;;;;;12.90;8.13;;;16.10;1.00;;;;;;5002223;28;20291;-81
2023/06/06 02:07:18;;;;;;;14.17;9.70;;;16.10;1.00;;;;;;5004535;28;20468;-80
2023/06/06 02:09:44;;;;;;;15.83;10.20;;;16.10;1.00;;;;;;5004332;28;21044;-80
2023/06/06 02:12:10;;;;;;;12.50;9.17;;;16.00;1.00;;;;;;5004461;28;20202;-81
2023/06/06 02:14:36;;;;;;;16.70;9.77;;;16.00;1.00;;;;;;5001349;28;20243;-81
2023/06/06 02:17:03;;;;;;;15.20;10.20;;;16.00;7.10;;;;;;5019092;28;20461;-78
2023/06/06 02:19:30;;;;;;;11.30;9.30;;;16.00;18.30;;;;;;5013579;28;20436;-81
2023/06/06 02:21:55;;;;;;;20.37;9.10;;;15.90;38.20;;;;;;5002763;28;20473;-81
2023/06/06 02:24:21;;;;;;;13.70;10.40;;;15.90;56.50;;;;;;4999283;28;20785;-81
2023/06/06 02:26:47;;;;;;;11.93;10.43;;;15.90;99.40;;;;;;5001693;28;20209;-80
2023/06/06 02:29:16;;;;;;;12.93;9.40;;;15.80;90.30;;;;;;5003976;28;20203;-81
2023/06/06 02:31:41;;;;;;;13.80;9.27;;;15.80;99.90;;;;;;4997253;28;20472;-81
2023/06/06 02:34:09;;;;;;;15.30;10.13;;;15.70;99.90;;;;;;5003916;28;20472;-78
2023/06/06 02:36:35;;;;;;;16.90;9.50;;;15.70;99.90;;;;;;4998013;28;20676;-81
2023/06/06 02:39:00;;;;;;;12.83;9.40;;;15.60;99.90;;;;;;5001808;28;20457;-79
2023/06/06 02:41:26;;;;;;;18.07;9.97;;;15.60;99.90;;;;;;5002787;28;20214;-81
2023/06/06 02:43:52;;;;;;;13.50;9.53;;;15.50;99.90;;;;;;5015551;28;20190;-80
2023/06/06 02:46:17;;;;;;;17.43;9.80;;;15.40;99.90;;;;;;4997416;28;20262;-81
2023/06/06 02:48:47;;;;;;;13.70;10.67;;;15.40;99.90;;;;;;5015821;28;20193;-81
2023/06/06 02:51:13;;;;;;;14.27;10.70;;;15.40;99.90;;;;;;5002274;28;20201;-80
2023/06/06 02:53:40;;;;;;;12.57;9.60;;;15.30;99.90;;;;;;5001245;28;20429;-81
2023/06/06 02:56:06;;;;;;;17.97;9.57;;;15.30;99.90;;;;;;5003157;28;20296;-80
2023/06/06 02:58:32;;;;;;;16.47;10.07;;;15.30;1.00;;;;;;5002719;28;20483;-80
2023/06/06 03:01:00;;;;;;;13.80;9.77;;;15.20;1.00;;;;;;5003922;28;20441;-81
2023/06/06 03:03:26;;;;;;;18.03;10.33;;;15.20;1.00;;;;;;4999258;28;20207;-81
2023/06/06 03:05:53;;;;;;;17.67;11.17;;;15.20;1.00;;;;;;5000577;28;21015;-81
2023/06/06 03:08:19;;;;;;;15.23;10.13;;;15.20;1.00;;;;;;4997814;28;20221;-80
2023/06/06 03:10:49;;;;;;;15.63;10.63;;;15.20;1.00;;;;;;4996113;28;20436;-81
2023/06/06 03:13:15;;;;;;;14.40;11.13;;;15.10;1.00;;;;;;5008741;28;20429;-80
2023/06/06 03:15:44;;;;;;;16.33;10.67;;;15.10;1.00;;;;;;5002282;28;20475;-80
2023/06/06 03:18:11;;;;;;;18.27;9.03;;;15.00;1.00;;;;;;5003082;28;20465;-81
2023/06/06 03:20:39;;;;;;;13.37;9.87;;;15.00;1.00;;;;;;5003029;28;20917;-80
2023/06/06 03:23:10;;;;;;;12.20;9.03;;;15.00;1.00;;;;;;4998411;28;20788;-79
2023/06/06 03:25:36;;;;;;;14.50;10.33;;;15.00;1.00;;;;;;5001394;28;20436;-80
2023/06/06 03:28:02;;;;;;;15.47;10.20;;;14.90;1.00;;;;;;5001443;28;20974;-81
2023/06/06 03:30:28;;;;;;;15.77;11.10;;;14.90;1.00;;;;;;4995329;28;20509;-81
2023/06/06 03:32:55;;;;;;;16.30;9.60;;;14.90;1.00;;;;;;5017352;28;20190;-81
2023/06/06 03:35:21;;;;;;;16.00;10.90;;;14.90;1.00;;;;;;5001940;28;20201;-79
2023/06/06 03:37:47;;;;;;;14.50;10.50;;;14.90;1.00;;;;;;5015296;28;20515;-81
2023/06/06 03:40:13;;;;;;;14.50;10.00;;;14.90;1.00;;;;;;5002984;28;20533;-81
2023/06/06 03:42:38;;;;;;;16.63;10.77;;;14.90;1.00;;;;;;5016552;28;20222;-80
2023/06/06 03:45:05;;;;;;;13.47;10.83;;;14.90;1.00;;;;;;5001113;28;20198;-80
2023/06/06 03:47:31;;;;;;;16.10;10.93;;;14.90;1.00;;;;;;5002172;28;20213;-80
2023/06/06 03:49:56;;;;;;;13.13;10.03;;;15.00;1.00;;;;;;5002830;28;20443;-82
2023/06/06 03:52:22;;;;;;;14.07;10.63;;;15.00;1.00;;;;;;5016411;28;20189;-81
2023/06/06 03:54:48;;;;;;;15.17;10.70;;;15.00;1.00;;;;;;5001049;28;20209;-81
2023/06/06 03:57:13;;;;;;;16.23;11.73;;;15.00;1.00;;;;;;4997909;28;20558;-80
2023/06/06 03:59:39;;;;;;;17.20;10.80;;;15.00;1.00;;;;;;5002034;28;20258;-81
2023/06/06 04:02:05;;;;;;;16.67;9.60;;;15.00;1.00;;;;;;5000832;28;20199;-81
2023/06/06 04:04:31;;;;;;;18.93;9.67;;;15.00;1.00;;;;;;4996531;28;20218;-81
2023/06/06 04:06:59;;;;;;;21.20;11.37;;;15.10;1.00;;;;;;5001684;28;20474;-81
2023/06/06 04:09:25;;;;;;;14.67;9.90;;;15.00;1.00;;;;;;4992482;28;20670;-81
2023/06/06 04:11:51;;;;;;;17.30;10.30;;;15.10;1.00;;;;;;5000941;28;20494;-81
2023/06/06 04:14:17;;;;;;;18.10;11.10;;;15.00;1.00;;;;;;5001584;28;20450;-80
2023/06/06 04:16:42;;;;;;;23.97;12.30;;;15.10;1.00;;;;;;5001347;28;20212;-81
2023/06/06 04:19:08;;;;;;;16.77;9.73;;;15.10;1.00;;;;;;4998752;28;20200;-80
2023/06/06 04:21:33;;;;;;;17.53;11.40;;;15.20;1.00;;;;;;5000836;28;20199;-81
2023/06/06 04:24:00;;;;;;;15.33;10.77;;;15.20;1.00;;;;;;4999100;28;20196;-81
2023/06/06 04:26:27;;;;;;;13.93;9.50;;;15.30;1.00;;;;;;4997440;28;20185;-79
2023/06/06 04:28:53;;;;;;;13.73;10.57;;;15.30;1.00;;;;;;5001943;28;20437;-80
2023/06/06 04:31:21;;;;;;;16.80;11.63;;;15.40;1.00;;;;;;4994673;28;20443;-81
2023/06/06 04:33:52;;;;;;;20.30;10.80;;;15.50;1.00;;;;;;5000455;28;20429;-81
2023/06/06 04:36:23;;;;;;;16.53;11.33;;;15.50;99.90;;;;;;5001693;28;20440;-81
2023/06/06 04:38:53;;;;;;;14.57;10.03;;;15.50;99.90;;;;;;5001948;28;20428;-81
2023/06/06 04:41:22;;;;;;;16.43;11.67;;;15.60;99.90;;;;;;5001455;28;20444;-81
2023/06/06 04:43:49;;;;;;;18.87;11.70;;;15.70;99.90;;;;;;5000631;28;20866;-79
2023/06/06 04:46:21;;;;;;;15.70;10.90;;;15.70;99.90;;;;;;4996081;28;20454;-81
2023/06/06 04:48:54;;;;;;;15.67;10.07;;;15.80;99.90;;;;;;4995514;28;20428;-81
2023/06/06 04:51:22;;;;;;;13.20;9.90;;;15.90;99.90;;;;;;4998583;28;20500;-78
2023/06/06 04:53:50;;;;;;;18.03;11.67;;;16.00;99.90;;;;;;4999300;28;20495;-80
2023/06/06 04:56:17;;;;;;;13.90;10.60;;;16.10;99.90;;;;;;4999579;28;20433;-79
2023/06/06 04:58:44;;;;;;;16.73;11.00;;;16.20;99.90;;;;;;4997415;28;20465;-80
2023/06/06 05:01:10;;;;;;;14.37;9.27;;;16.30;99.90;;;;;;4989923;28;20510;-80
2023/06/06 05:03:37;;;;;;;17.00;11.00;;;16.40;47.60;;;;;;4998807;28;20437;-79
2023/06/06 05:06:02;;;;;;;14.47;10.80;;;16.40;4.40;;;;;;4999179;28;20557;-78
2023/06/06 05:08:31;;;;;;;17.03;12.23;;;16.50;1.00;;;;;;4990834;28;20481;-80
2023/06/06 05:10:57;;;;;;;16.60;11.73;;;16.60;1.00;;;;;;5013121;28;20659;-78
2023/06/06 05:13:23;;;;;;;15.60;13.10;;;16.70;1.00;;;;;;4997738;28;20477;-78
2023/06/06 05:15:48;;;;;;;17.73;14.20;;;16.90;1.00;;;;;;4998679;28;20206;-79
2023/06/06 05:18:14;;;;;;;21.57;14.27;;;17.00;1.00;;;;;;4994123;28;20325;-80
2023/06/06 05:20:39;;;;;;;19.90;14.73;;;17.10;1.00;;;;;;4996469;28;20195;-81
2023/06/06 05:23:06;;;;;;;22.90;13.97;;;17.20;1.00;;;;;;5000026;28;20322;-78
2023/06/06 05:25:31;;;;;;;19.87;14.33;;;17.30;1.00;;;;;;4999067;28;20200;-83
2023/06/06 05:28:03;;;;;;;21.93;12.80;;;17.40;1.00;;;;;;5001108;28;20455;-80
2023/06/06 05:30:28;;;;;;;16.50;12.70;;;17.50;1.00;;;;;;4997637;28;20538;-79
2023/06/06 05:32:54;;;;;;;21.00;12.80;;;17.60;1.00;;;;;;4999148;28;20502;-81
2023/06/06 05:35:19;;;;;;;18.40;11.67;;;17.70;1.00;;;;;;4997776;28;20194;-80
2023/06/06 05:37:45;;;;;;;20.00;13.03;;;17.80;1.00;;;;;;5003756;28;20350;-82
2023/06/06 05:40:10;;;;;;;16.60;11.87;;;17.90;99.90;;;;;;5005633;28;20278;-79
2023/06/06 05:42:36;;;;;;;14.73;11.57;;;18.00;99.90;;;;;;5005607;28;20342;-82
2023/06/06 05:45:02;;;;;;;14.63;11.90;;;18.10;99.90;;;;;;5005321;28;20266;-83
2023/06/06 05:47:27;;;;;;;14.97;11.20;;;18.20;99.90;;;;;;5003362;28;20234;-81
2023/06/06 05:49:53;;;;;;;15.00;11.50;;;18.30;99.90;;;;;;5020960;28;20246;-79
2023/06/06 05:52:18;;;;;;;15.67;10.87;;;18.40;99.90;;;;;;5003208;28;20187;-80
2023/06/06 05:54:44;;;;;;;16.07;10.50;;;18.50;99.90;;;;;;5002537;28;20211;-81
2023/06/06 05:57:22;;;;;;;18.43;11.67;;;18.60;99.90;;;;;;5003404;28;20365;-80
2023/06/06 05:59:48;;;;;;;16.50;12.00;;;18.70;99.90;;;;;;4999071;28;20888;-80
2023/06/06 06:02:14;;;;;;;15.97;11.20;;;19.00;99.90;;;;;;5002863;28;20431;-80
2023/06/06 06:04:42;;;;;;;16.03;10.77;;;19.30;99.90;;;;;;4998959;28;20492;-81
2023/06/06 06:07:08;;;;;;;13.80;10.33;;;19.80;99.90;;;;;;5020111;28;20457;-81
2023/06/06 06:09:34;;;;;;;14.23;10.27;;;20.90;99.90;;;;;;4989604;28;20470;-80
2023/06/06 06:12:00;;;;;;;14.20;9.10;;;23.30;99.90;;;;;;5005534;28;20427;-81
2023/06/06 06:14:26;;;;;;;13.53;9.50;;;26.60;99.90;;;;;;5006379;28;20493;-82
2023/06/06 06:16:51;;;;;;;13.40;11.00;;;29.40;99.90;;;;;;5004397;28;20211;-82
2023/06/06 06:19:17;;;;;;;14.87;10.23;;;31.90;99.90;;;;;;5005241;28;20226;-82
2023/06/06 06:21:43;;;;;;;11.80;10.53;;;34.00;99.90;;;;;;5002409;28;20184;-81
2023/06/06 06:24:08;;;;;;;11.10;9.30;;;35.80;99.90;;;;;;5016455;28;20246;-79
2023/06/06 06:26:34;;;;;;;10.80;9.70;;;37.40;99.90;;;;;;4998995;28;20665;-81
2023/06/06 06:28:59;;;;;;;10.80;9.53;;;38.80;99.90;;;;;;5011082;28;20195;-84
2023/06/06 06:31:26;;;;;;;12.47;9.67;;;40.10;88.70;;;;;;5012285;28;20223;-85
2023/06/06 06:33:52;;;;;;;11.53;10.03;;;41.00;73.40;;;;;;5008624;28;20187;-83
2023/06/06 06:36:18;;;;;;;11.67;9.70;;;41.80;60.00;;;;;;5009034;28;20530;-82
2023/06/06 06:38:43;;;;;;;10.83;9.87;;;42.60;51.90;;;;;;5008132;28;20202;-84
2023/06/06 06:41:12;;;;;;;10.90;9.20;;;43.40;43.90;;;;;;5004324;28;20191;-83
2023/06/06 06:43:43;;;;;;;9.67;8.73;;;44.00;36.00;;;;;;5004168;28;20187;-83
2023/06/06 06:46:23;;;;;;;13.53;9.67;;;44.70;30.00;;;;;;5002992;28;20502;-82
2023/06/06 06:49:21;;;;;;;9.70;8.90;;;45.30;24.40;;;;;;5001532;28;20474;-85
2023/06/06 06:51:51;;;;;;;10.20;8.90;;;46.20;20.40;;;;;;5007413;28;20811;-85
2023/06/06 06:54:21;;;;;;;9.93;8.80;;;47.20;15.90;;;;;;5005782;28;20438;-84
2023/06/06 06:56:48;;;;;;;8.83;8.00;;;48.30;12.60;;;;;;5006775;28;20519;-84
2023/06/06 06:59:14;;;;;;;10.90;9.43;;;49.60;9.80;;;;;;5016159;28;20500;-82
2023/06/06 07:01:40;;;;;;;10.77;9.30;;;50.60;7.10;;;;;;5002755;28;20430;-84
2023/06/06 07:04:07;;;;;;;10.10;8.57;;;51.40;3.60;;;;;;5014432;28;20182;-84
2023/06/06 07:06:36;;;;;;;9.73;8.73;;;52.00;1.60;;;;;;5006563;28;20179;-84
2023/06/06 07:09:04;;;;;;;10.67;9.20;;;52.70;1.00;;;;;;5007546;28;20191;-84
2023/06/06 07:11:33;;;;;;;9.35;8.60;;;52.90;1.00;;;;;;5022829;28;20171;-85
2023/06/06 07:13:58;;;;;;;9.10;8.30;;;53.20;1.00;;;;;;5011543;28;20190;-85
2023/06/06 07:16:25;;;;;;;9.40;8.40;;;53.60;1.00;;;;;;5004572;28;20186;-85
2023/06/06 07:18:52;;;;;;;9.52;8.68;;;53.90;1.00;;;;;;5004693;28;20247;-83
2023/06/06 07:21:21;;;;;;;9.55;8.63;;;54.50;1.00;;;;;;4994230;28;20187;-86
2023/06/06 07:23:50;;;;;;;10.80;7.53;;;54.90;1.00;;;;;;5004882;28;20238;-83
2023/06/06 07:26:22;;;;;;;10.13;9.07;;;55.30;1.00;;;;;;5006141;28;20186;-81
2023/06/06 07:28:48;;;;;;;11.75;8.40;;;55.70;1.00;;;;;;4997901;28;20187;-81
2023/06/06 07:31:14;;;;;;;12.93;8.55;;;55.70;1.00;;;;;;5003099;28;20189;-82
2023/06/06 07:33:40;;;;;;;9.25;8.52;;;55.80;1.00;;;;;;4997307;28;20218;-83
2023/06/06 07:36:07;;;;;;;9.73;7.95;;;56.10;1.00;;;;;;5002365;28;20187;-82
2023/06/06 07:38:32;;;;;;;8.80;7.90;;;56.40;1.00;;;;;;5002162;28;20199;-81
2023/06/06 07:40:58;;;;;;;9.38;8.57;;;56.60;1.00;;;;;;5020900;28;20201;-82
2023/06/06 07:43:27;;;;;;;9.98;8.15;;;56.70;1.00;;;;;;5018126;28;20664;-82
2023/06/06 07:45:55;;;;;;;11.43;8.18;;;56.80;1.00;;;;;;5002065;28;20202;-83
2023/06/06 07:56:38;;;;;;;10.07;8.50;;;56.50;1.00;;;;;;5012324;28;20234;-81
2023/06/06 07:59:31;;;;;;;10.93;8.32;;;56.40;1.00;;;;;;5003219;28;20191;-83
2023/06/06 08:02:58;;;;;;;9.63;8.70;;;56.40;1.00;;;;;;5003236;28;20195;-83
2023/06/06 08:05:50;;;;;;;10.85;8.20;;;56.40;1.00;;;;;;4978720;28;20223;-82
2023/06/06 08:08:18;;;;;;;11.38;8.27;;;56.30;1.00;;;;;;4977877;28;20260;-83
2023/06/06 08:10:46;;;;;;;8.88;7.65;;;56.50;1.00;;;;;;4976616;28;20175;-80
2023/06/06 08:13:40;;;;;;;;;;;;;;;;;;;;;
2023/06/06 08:16:32;;;;;;;;;;;;;;;;;;;;;
2023/06/06 08:19:08;;;;;;;8.73;7.93;;;56.30;1.00;;;;;;4992880;28;20267;-82
2023/06/06 08:21:39;;;;;;;11.75;8.38;;;56.30;1.00;;;;;;4984333;28;20213;-81
2023/06/06 08:24:43;;;;;;;;;;;;;;;;;;;;;
2023/06/06 08:28:00;;;;;;;;;;;;;;;;;;;;;
2023/06/06 08:31:18;;;;;;;;;;;;;;;;;;;;;
2023/06/06 08:34:32;;;;;;;;;;;;;;;;;;;;;
2023/06/06 08:37:56;;;;;;;;;;;;;;;;;;;;;
2023/06/06 08:41:18;;;;;;;9.98;7.72;;;55.70;1.00;;;;;;4918618;29;20261;-82
2023/06/06 08:44:19;;;;;;;;;;;;;;;;;;;;;
2023/06/06 08:48:19;;;;;;;;;;;;;;;;;;;;;
2023/06/06 08:50:18;;;;;;;8.45;7.70;;;56.20;1.00;;;;;;4974915;28;20182;-81
2023/06/06 08:52:56;;;;;;;9.82;7.68;;;56.10;1.00;;;;;;4981418;28;20202;-82
2023/06/06 08:55:45;;;;;;;9.32;8.40;;;55.80;1.00;;;;;;4979258;28;20199;-81
2023/06/06 08:59:01;;;;;;;9.02;8.20;;;55.40;1.00;;;;;;4958298;28;20215;-81
2023/06/06 09:01:50;;;;;;;10.90;8.40;;;55.30;1.00;;;;;;4998100;28;20274;-80
2023/06/06 09:04:34;;;;;;;9.05;7.85;;;55.30;1.00;;;;;;4992066;28;20203;-81
2023/06/06 09:07:14;;;;;;;8.25;7.45;;;55.20;1.00;;;;;;4991399;28;20680;-81
2023/06/06 09:10:00;;;;;;;9.18;7.78;;;55.00;1.00;;;;;;4976820;28;20260;-81
2023/06/06 09:12:34;;;;;;;8.97;7.30;;;54.80;1.00;;;;;;4976718;28;20270;-81
2023/06/06 09:15:09;;;;;;;8.20;7.40;;;54.70;1.00;;;;;;4999089;28;20235;-81
2023/06/06 09:17:54;;;;;;;11.37;7.97;;;54.60;1.00;;;;;;5002290;28;20212;-81
2023/06/06 09:20:20;;;;;;;8.37;7.57;;;54.30;1.00;;;;;;4995842;28;20184;-80
2023/06/06 09:23:00;;;;;;;12.90;8.23;;;53.90;1.00;;;;;;5002439;28;20699;-80
2023/06/06 09:25:34;;;;;;;9.33;8.03;;;53.50;1.00;;;;;;4981261;28;20262;-80
2023/06/06 09:28:01;;;;;;;8.67;7.10;;;53.10;1.00;;;;;;5003292;28;20210;-81
2023/06/06 09:30:30;;;;;;;8.90;7.40;;;52.90;1.00;;;;;;5002903;28;20680;-80
2023/06/06 09:32:58;;;;;;;9.23;8.20;;;52.80;1.00;;;;;;4981744;28;20186;-81
2023/06/06 09:35:29;;;;;;;9.77;7.70;;;52.70;1.00;;;;;;5003270;28;20213;-81
2023/06/06 09:37:56;;;;;;;8.93;8.07;;;52.60;1.00;;;;;;5002772;28;20194;-81
2023/06/06 09:40:22;;;;;;;7.80;7.13;;;52.10;1.00;;;;;;5001009;28;20450;-81
2023/06/06 09:42:49;;;;;;;9.43;8.47;;;52.00;1.00;;;;;;4999545;28;20435;-81
2023/06/06 09:45:19;;;;;;;9.13;7.60;;;52.10;1.00;;;;;;4997196;28;20505;-82
2023/06/06 09:47:47;;;;;;;14.33;8.20;;;52.10;1.00;;;;;;4992902;28;20464;-81
2023/06/06 09:50:17;;;;;;;7.70;6.93;;;52.10;1.00;;;;;;4993134;28;20439;-82
2023/06/06 09:52:42;;;;;;;8.30;7.70;;;51.80;1.00;;;;;;4996920;28;20542;-81
2023/06/06 09:55:10;;;;;;;10.90;7.10;;;51.60;1.00;;;;;;4994169;28;20474;-82
2023/06/06 09:57:37;;;;;;;8.43;7.13;;;51.00;1.00;;;;;;4997507;28;20286;-81
2023/06/06 10:00:14;;;;;;;9.60;8.70;;;50.40;1.00;;;;;;4999077;28;20442;-81
2023/06/06 10:02:47;;;;;;;7.90;7.10;;;49.90;1.00;;;;;;4998866;28;20419;-81
2023/06/06 10:05:14;;;;;;;8.97;8.00;;;49.70;1.00;;;;;;4993891;28;20546;-81
2023/06/06 10:07:44;;;;;;;8.90;8.10;;;49.50;1.00;;;;;;4981244;28;20457;-81
2023/06/06 10:10:11;;;;;;;7.43;6.67;;;49.30;1.00;;;;;;4998757;28;20442;-82
2023/06/06 10:12:38;;;;;;;8.70;7.30;;;49.10;1.00;;;;;;4999982;28;20513;-81
2023/06/06 10:15:07;;;;;;;8.93;8.13;;;49.10;1.00;;;;;;4981522;28;20438;-82
2023/06/06 10:17:35;;;;;;;14.03;7.43;;;49.00;1.00;;;;;;4999730;28;20493;-81
2023/06/06 10:20:06;;;;;;;10.40;7.70;;;48.90;1.00;;;;;;4994615;28;20438;-82
2023/06/06 10:22:34;;;;;;;10.90;7.47;;;48.80;1.00;;;;;;4992144;28;20467;-82
2023/06/06 10:25:01;;;;;;;7.20;6.50;;;48.60;1.00;;;;;;4994711;28;20536;-82
2023/06/06 10:27:59;;;;;;;8.57;7.30;;;48.70;1.00;;;;;;5045430;22;20503;-84
2023/06/06 10:30:43;;;;;;;7.70;6.33;;;48.70;1.00;;;;;;5055717;28;20448;-83
2023/06/06 10:33:18;;;;;;;7.23;6.40;;;48.50;1.00;;;;;;5043174;28;20458;-83
2023/06/06 10:35:46;;;;;;;7.93;6.50;;;48.20;1.00;;;;;;5031937;28;20470;-82
2023/06/06 10:38:11;;;;;;;10.13;7.20;;;48.00;1.00;;;;;;5050431;28;20924;-83
2023/06/06 10:40:58;;;;;;;9.20;7.30;;;47.60;1.00;;;;;;5061957;28;20595;-82
2023/06/06 10:43:35;;;;;;;19.97;7.00;;;47.40;1.00;;;;;;5061855;28;20204;-84
2023/06/06 10:46:02;;;;;;;9.07;6.70;;;47.50;1.00;;;;;;5062248;28;20470;-82
2023/06/06 10:48:42;;;;;;;7.13;5.90;;;47.50;1.00;;;;;;5038249;28;20461;-84
2023/06/06 10:51:23;;;;;;;6.83;5.90;;;47.50;1.00;;;;;;5061938;28;20435;-83
2023/06/06 10:54:19;;;;;;;9.17;6.67;;;47.40;1.00;;;;;;5064516;28;20444;-84
2023/06/06 11:37:50;;;;;;;5.67;4.10;;;46.20;1.00;;;;;;4163163;26;20517;-84
2023/06/06 11:40:16;;;;;;;4.23;3.30;;;46.00;1.00;;;;;;5035345;28;20465;-83
2023/06/06 11:42:43;;;;;;;7.43;4.17;;;45.80;1.00;;;;;;5033222;28;20183;-83
2023/06/06 11:45:15;;;;;;;5.73;4.03;;;45.60;1.00;;;;;;5036483;28;20523;-82
2023/06/06 11:47:42;;;;;;;5.87;3.97;;;45.00;1.00;;;;;;5037811;28;20446;-83
2023/06/06 11:50:09;;;;;;;8.13;4.47;;;44.70;1.00;;;;;;5034641;28;20413;-83
2023/06/06 11:52:48;;;;;;;6.23;3.60;;;44.50;1.00;;;;;;5033225;28;20432;-83
2023/06/06 11:55:15;;;;;;;5.20;4.07;;;44.20;1.00;;;;;;5036163;28;20429;-82
2023/06/06 11:57:41;;;;;;;5.80;3.20;;;44.00;1.00;;;;;;5037081;28;20440;-84
2023/06/06 12:00:10;;;;;;;3.90;3.50;;;43.90;1.00;;;;;;5036475;28;20556;-83
2023/06/06 12:02:36;;;;;;;5.40;3.53;;;43.90;1.00;;;;;;5029508;28;20474;-83
2023/06/06 12:05:03;;;;;;;5.00;3.10;;;43.80;1.00;;;;;;5036295;28;20481;-84
2023/06/06 12:07:29;;;;;;;3.93;3.53;;;43.60;1.00;;;;;;5028780;28;20226;-84
2023/06/06 12:09:59;;;;;;;8.63;4.20;;;43.40;1.00;;;;;;5033020;28;20452;-81
2023/06/06 12:12:24;;;;;;;3.80;3.50;;;43.40;1.00;;;;;;5033314;28;20668;-82
2023/06/06 12:14:58;;;;;;;6.67;3.77;;;43.10;1.00;;;;;;5037880;28;20495;-84
2023/06/06 12:17:26;;;;;;;3.53;3.20;;;42.90;1.00;;;;;;5034145;28;20577;-83
2023/06/06 12:19:56;;;;;;;6.40;3.63;;;42.80;1.00;;;;;;5035549;28;20437;-83
2023/06/06 12:22:32;;;;;;;3.07;2.77;;;42.70;1.00;;;;;;5033389;28;20469;-82
2023/06/06 12:24:57;;;;;;;4.23;3.83;;;42.60;1.00;;;;;;5031740;28;20476;-81
2023/06/06 12:27:27;;;;;;;3.80;3.20;;;42.50;1.00;;;;;;5035789;28;20445;-84
2023/06/06 12:29:55;;;;;;;4.20;3.50;;;42.20;1.00;;;;;;5037920;28;20225;-84
2023/06/06 12:32:26;;;;;;;3.80;3.20;;;42.00;1.00;;;;;;5037775;28;20417;-82
2023/06/06 12:34:59;;;;;;;6.60;3.70;;;41.90;1.00;;;;;;5037848;28;20416;-82
2023/06/06 12:37:34;;;;;;;6.70;3.83;;;41.90;1.00;;;;;;5036361;28;20533;-83
2023/06/06 12:40:00;;;;;;;3.40;2.97;;;41.80;1.00;;;;;;5038607;28;20528;-83
2023/06/06 12:42:26;;;;;;;5.70;4.37;;;41.70;1.00;;;;;;5034313;28;20441;-81
2023/06/06 12:44:51;;;;;;;6.33;3.60;;;41.60;1.00;;;;;;5033013;28;20230;-83
2023/06/06 12:47:17;;;;;;;5.57;3.50;;;41.40;1.00;;;;;;5039579;28;20218;-84
2023/06/06 12:49:45;;;;;;;6.40;3.80;;;41.40;1.00;;;;;;5041300;28;20600;-82
2023/06/06 12:52:11;;;;;;;5.77;3.20;;;41.20;1.00;;;;;;5042146;28;20186;-84
2023/06/06 12:54:41;;;;;;;6.53;3.33;;;41.10;1.00;;;;;;5037593;28;20441;-81
2023/06/06 12:57:11;;;;;;;3.70;2.90;;;41.00;1.00;;;;;;5038148;28;20472;-83
2023/06/06 12:59:42;;;;;;;7.03;3.80;;;40.70;1.00;;;;;;5038258;28;20521;-81
2023/06/06 13:02:09;;;;;;;3.77;3.10;;;40.50;1.00;;;;;;5041145;28;20424;-82
2023/06/06 13:04:39;;;;;;;4.23;2.93;;;40.20;1.00;;;;;;5041822;28;20464;-82
2023/06/06 13:07:08;;;;;;;5.30;3.40;;;40.10;1.00;;;;;;5041453;28;21120;-82
2023/06/06 13:09:35;;;;;;;7.53;3.40;;;40.10;1.00;;;;;;5040878;28;20814;-83
2023/06/06 13:12:00;;;;;;;5.73;3.10;;;40.10;1.00;;;;;;5038346;28;20449;-83
2023/06/06 13:14:27;;;;;;;3.90;3.33;;;39.90;1.00;;;;;;5041868;28;20435;-83
2023/06/06 13:16:53;;;;;;;7.10;3.40;;;39.60;1.00;;;;;;5039922;28;20259;-83
2023/06/06 13:19:19;;;;;;;6.50;3.40;;;39.30;1.00;;;;;;5042083;28;20836;-81
2023/06/06 13:21:46;;;;;;;5.77;3.23;;;38.70;1.00;;;;;;5041880;28;20420;-84
2023/06/06 13:24:13;;;;;;;5.97;3.17;;;38.00;1.00;;;;;;5041200;28;21009;-83
2023/06/06 13:26:39;;;;;;;8.13;3.13;;;37.70;1.00;;;;;;5037107;28;20457;-82
2023/06/06 13:29:05;;;;;;;4.43;3.23;;;37.70;1.00;;;;;;5040502;28;20471;-82
2023/06/06 13:31:30;;;;;;;6.77;3.40;;;37.60;1.00;;;;;;5040229;28;20914;-81
2023/06/06 13:33:56;;;;;;;5.43;3.60;;;37.60;1.00;;;;;;5039186;28;20189;-83
2023/06/06 13:36:21;;;;;;;3.40;3.10;;;37.50;1.00;;;;;;5040523;28;20209;-82
2023/06/06 13:38:47;;;;;;;4.87;3.33;;;37.50;1.00;;;;;;5040826;28;20183;-83
2023/06/06 13:41:13;;;;;;;4.40;3.10;;;37.50;1.00;;;;;;5040525;28;20190;-83
2023/06/06 13:43:38;;;;;;;8.00;3.50;;;37.30;1.00;;;;;;5038168;28;20213;-80
2023/06/06 13:46:04;;;;;;;7.17;3.57;;;37.10;1.00;;;;;;5040559;28;20260;-83
2023/06/06 13:48:29;;;;;;;4.40;3.20;;;37.20;1.00;;;;;;5039500;28;20213;-84
2023/06/06 13:50:57;;;;;;;4.90;3.10;;;37.10;1.00;;;;;;5039605;28;20187;-83
2023/06/06 13:53:23;;;;;;;6.40;2.93;;;36.90;1.00;;;;;;5040705;28;20174;-82
2023/06/06 13:55:49;;;;;;;5.67;3.10;;;36.60;1.00;;;;;;5040731;28;20806;-82
2023/06/06 13:58:21;;;;;;;6.73;3.13;;;36.30;1.00;;;;;;5039023;28;20194;-84
2023/06/06 14:00:47;;;;;;;5.10;3.10;;;35.90;1.00;;;;;;5038078;28;20193;-82